Main page
METAR-TAF:

METAR-TAF

Airports :

Hamid Karzai International Airport

Kabul, Afghanistan

latitude: 34-38N, longitude: 069-12E, elevation: 1789 m

Current weather observation

The report was made 33 minutes ago, at 22:50 UTC
Wind 6 kt from the West/Northwest
Temperature -3°C
Humidity 54%
Pressure 1014 hPa
Visibility 10 km or more
no clouds below 1500 m and no cumulonimbus

METAR: OAKB 212250Z 29006KT CAVOK M03/M11 Q1014 NOSIG RMK A2995 BLU BLU

Time: 03:53 (23:23 UTC)

Forecast

The report was made 1 hour and 23 minutes ago, at 22:00 UTC
Forecast valid from 21 at 22 UTC to 22 at 18 UTC
Wind 2 kt from variable directions
Visibility 10 km or more
no clouds below 1500 m and no cumulonimbus
Probability 30%
from 22 at 01 UTC to 22 at 05 UTC
Visibility: 4000 m
smoke
Becoming
from 22 at 13 UTC to 22 at 15 UTC
Visibility: 3000 m
smoke

TAF: OAKB 212200Z 2122/2218 VRB02KT CAVOK PROB30 2201/2205 4000 FU BECMG 2213/2215 3000 FU

Weather observations and forecasts of more than 4000 airports (METAR and TAF reports).

The available stations are represented by yellow and red dots on the map.

Hover mouse over dot to see the name of the station.

Then click to see weather observations and forecasts.

To change the map : click on the green buttons with a black cross to zoom in, on the green button with a dash to zoom out, or on the green arrows for adjacent maps.


METAR-TAF: